LPPSLPPR

Guest
Details From LPPS - Porto Santo
To LPPR - Porto
Flight Number -
Tags Generated
Created
Modified
Stats Distance 613 nm / 1,136 km
Max Altitude 0 ft / 0 m
Waypoints 3
Social Downloads 0
Likes 0
Share VATSIM

Download

Looking for another format? Having issues loading an existing format? Contact us
Advertisement - Login to hide

Notes

Generated

Route

LPPS PRT LPPR

ID Type Via Altitude Latitude Longitude Leg Dist Tot Dist Heading (true) Name
O LPPS APT - 0 ft / 0 m 33.08696˚ -16.35048˚ - 0 nm - -
PRT VOR - 0 ft / 0 m 41.27300˚ -8.68783˚ 612 nm 612 nm 34° / 39° PORTO VOR-DME
O LPPR APT - 0 ft / 0 m 41.26333˚ -8.68524˚ 0 nm 613 nm 169° / 169° -

Altitude Profile

Advertisement - Login to hide

Weather


0- 5 10 15 20 25 30 35+ Temperature / ° C

Clouds and Precipitation
Forecast for 2018-05-26 18:00 UTC. Updated 33 minutes ago

Ground ~20,000 ft ~40,000 ft Winds

LPPS

Details ICAO LPPS (PXO)
Name Porto Santo
Region Portugal
Timezone Atlantic/Madeira (UTC+1.0)
Stats Elevation 340 ft / 104 m (AMSL)
Location 33.073413° -16.349946°
Runways 1
Magnetic Variation 4.764° W

METAR

LPPS 261730Z 34014KT 9999 SCT015 BKN030 17/11 Q1019

Decode

TAF

TAF LPPS 261100Z 2612/2718 36015KT 9999 FEW015 BKN030 TEMPO 2612/2718 SCT015

Decode

Departure Runways

ID Width Length Bearing (true) Bearing (mag) Surface Threshold Offset Overrun Length
18 148 ft / 45 m 9,890 ft / 3,014 m 178.11° 182.87° Asphalt 0 ft / 0 m 0 ft / 0 m
36 148 ft / 45 m 9,890 ft / 3,014 m 358.12° 2.88° Asphalt 0 ft / 0 m 499 ft / 152 m

LPPR

Details ICAO LPPR (OPO)
Name Porto
Region Portugal
Timezone Europe/Lisbon (UTC+1.0)
Stats Elevation 228 ft / 69 m (AMSL)
Location 41.247932° -8.681221°
Runways 1
Magnetic Variation 2.282° W

METAR

LPPR 261730Z 29005KT 260V330 9999 FEW017 FEW020TCU 18/14 Q1013

Decode

TAF

TAF LPPR 261100Z 2612/2712 27008KT 9999 SCT018 BECMG 2618/2620 VRB03KT FEW015 BECMG 2702/2704 5000 BR SCT002 BKN004 PROB30 TEMPO 2704/2708 0400 FG VV001 BECMG 2709/2711 33012KT 9999 NSW SCT006 SCT012

Decode

Destination Runways

ID Width Length Bearing (true) Bearing (mag) Surface Threshold Offset Overrun Length
17 148 ft / 45 m 11,451 ft / 3,490 m 168.88° 171.16° Asphalt 984 ft / 300 m 220 ft / 67 m
35 148 ft / 45 m 11,451 ft / 3,490 m 348.89° 351.17° Asphalt 492 ft / 150 m 370 ft / 113 m

Approach Navaids

Runway Type Ident Frequency Range Bearing (true) Bearing (mag) Slope Elevation
17 Localiser PR 109.90 MHz 18 nm / 33 km 168.87° 171.15° - 228 ft / 69 m (AMSL)
17 Glidescope PR 109.90 MHz 10 nm / 19 km 168.88° 171.17° 2.72° 228 ft / 69 m (AMSL)
17 DME PR 109.90 MHz 18 nm / 33 km - - - 228 ft / 69 m (AMSL)

Popular Alternatives